createdAt,value
2023-03-19T00:00:45.678Z,3.96
2023-03-19T00:03:13.075Z,3.90
2023-03-19T00:05:40.171Z,3.79
2023-03-19T00:08:07.500Z,3.78
2023-03-19T00:10:39.216Z,3.94
2023-03-19T00:13:07.100Z,4.01
2023-03-19T00:15:34.886Z,4.03
2023-03-19T00:18:02.180Z,4.04
2023-03-19T00:20:29.272Z,4.19
2023-03-19T00:22:56.633Z,4.10
2023-03-19T00:25:24.247Z,4.11
2023-03-19T00:27:52.849Z,4.22
2023-03-19T00:30:21.306Z,4.15
2023-03-19T00:32:49.113Z,4.26
2023-03-19T00:35:16.687Z,4.19
2023-03-19T00:37:44.118Z,4.19
2023-03-19T00:40:11.930Z,4.19
2023-03-19T00:42:39.579Z,4.10
2023-03-19T00:45:07.661Z,4.20
2023-03-19T00:47:35.940Z,4.04
2023-03-19T00:50:05.115Z,4.07
2023-03-19T00:52:33.172Z,3.96
2023-03-19T00:55:00.380Z,4.06
2023-03-19T00:57:27.438Z,3.96
2023-03-19T00:59:54.817Z,3.97
2023-03-19T01:02:21.950Z,3.85
2023-03-19T01:04:49.454Z,3.98
2023-03-19T01:07:17.046Z,4.03
2023-03-19T01:09:44.277Z,3.95
2023-03-19T01:12:11.594Z,3.87
2023-03-19T01:14:39.525Z,3.71
2023-03-19T01:17:06.791Z,3.72
2023-03-19T01:19:34.213Z,3.72
2023-03-19T01:22:02.177Z,3.73
2023-03-19T01:24:31.477Z,3.59
2023-03-19T01:26:58.702Z,3.52
2023-03-19T01:29:26.704Z,3.52
2023-03-19T01:31:55.983Z,3.54
2023-03-19T01:34:23.254Z,3.63
2023-03-19T01:36:52.545Z,3.61
2023-03-19T01:39:20.022Z,3.61
2023-03-19T01:41:47.532Z,3.59
2023-03-19T01:44:34.302Z,3.60
2023-03-19T01:47:07.425Z,3.57
2023-03-19T01:49:35.765Z,3.44
2023-03-19T01:52:05.443Z,3.40
2023-03-19T01:54:33.619Z,3.27
2023-03-19T01:57:08.736Z,3.29
2023-03-19T01:59:42.722Z,3.29
2023-03-19T02:02:20.271Z,3.30
2023-03-19T02:04:52.133Z,3.29
2023-03-19T02:07:20.208Z,3.28
2023-03-19T02:09:47.784Z,3.35
2023-03-19T02:12:15.606Z,3.39
2023-03-19T02:14:42.766Z,3.42
2023-03-19T02:17:11.268Z,3.41
2023-03-19T02:19:48.426Z,3.30
2023-03-19T02:22:19.619Z,3.28
2023-03-19T02:25:06.597Z,3.23
2023-03-19T02:27:35.654Z,3.16
2023-03-19T02:30:28.390Z,3.20
2023-03-19T02:32:56.005Z,3.18
2023-03-19T02:35:24.249Z,3.22
2023-03-19T02:37:51.602Z,3.20
2023-03-19T02:40:24.702Z,3.22
2023-03-19T02:42:52.191Z,3.18
2023-03-19T02:45:19.654Z,3.33
2023-03-19T02:47:47.396Z,3.38
2023-03-19T02:50:14.900Z,3.20
2023-03-19T02:52:42.082Z,3.13
2023-03-19T02:55:09.581Z,3.11
2023-03-19T02:57:37.163Z,2.98
2023-03-19T03:00:06.740Z,2.87
2023-03-19T03:02:33.939Z,2.98
2023-03-19T03:05:01.335Z,2.99
2023-03-19T03:07:28.432Z,2.97
2023-03-19T03:09:55.548Z,2.92
2023-03-19T03:12:23.119Z,2.88
2023-03-19T03:14:50.534Z,2.72
2023-03-19T03:17:19.228Z,2.95
2023-03-19T03:19:47.775Z,2.86
2023-03-19T03:22:14.947Z,2.76
2023-03-19T03:24:42.604Z,2.88
2023-03-19T03:27:10.232Z,2.87
2023-03-19T03:29:37.399Z,2.69
2023-03-19T03:32:04.809Z,2.64
2023-03-19T03:34:32.290Z,2.65
2023-03-19T03:36:59.587Z,2.57
2023-03-19T03:39:27.573Z,2.52
2023-03-19T03:41:54.979Z,2.56
2023-03-19T03:44:22.839Z,2.43
2023-03-19T03:46:49.960Z,2.31
2023-03-19T03:49:17.438Z,2.26
2023-03-19T03:51:44.552Z,2.25
2023-03-19T03:54:11.921Z,2.25
2023-03-19T03:56:39.414Z,2.19
2023-03-19T03:59:07.522Z,2.32
2023-03-19T04:01:34.612Z,2.35
2023-03-19T04:04:02.744Z,2.27
2023-03-19T04:06:30.259Z,2.36
2023-03-19T04:08:59.865Z,2.31
2023-03-19T04:11:27.345Z,2.26
2023-03-19T04:13:56.542Z,2.34
2023-03-19T04:16:25.090Z,2.42
2023-03-19T04:18:52.846Z,2.43
2023-03-19T04:21:19.941Z,2.43
2023-03-19T04:23:47.592Z,2.48
2023-03-19T04:26:14.996Z,2.44
2023-03-19T04:28:42.198Z,2.40
2023-03-19T04:31:10.862Z,2.55
2023-03-19T04:33:40.165Z,2.50
2023-03-19T04:36:08.340Z,2.40
2023-03-19T04:38:36.124Z,2.40
2023-03-19T04:41:04.289Z,2.27
2023-03-19T04:43:32.829Z,2.23
2023-03-19T04:46:00.485Z,2.15
2023-03-19T04:48:28.415Z,2.11
2023-03-19T04:50:57.109Z,2.20
2023-03-19T04:53:24.896Z,2.10
2023-03-19T04:55:52.406Z,2.02
2023-03-19T04:58:20.218Z,2.06
2023-03-19T05:00:48.129Z,2.08
2023-03-19T05:03:17.514Z,2.20
2023-03-19T05:05:45.282Z,2.17
2023-03-19T05:08:13.660Z,2.33
2023-03-19T05:10:41.418Z,2.36
2023-03-19T05:13:09.127Z,2.42
2023-03-19T05:15:38.789Z,2.55
2023-03-19T05:18:06.917Z,2.92
2023-03-19T05:20:34.911Z,3.25
2023-03-19T05:23:03.210Z,3.53
2023-03-19T05:25:35.221Z,3.76
2023-03-19T05:28:05.032Z,3.84
2023-03-19T05:30:33.216Z,3.88
2023-03-19T05:33:02.090Z,4.12
2023-03-19T05:35:30.757Z,4.33
2023-03-19T05:37:58.984Z,4.73
2023-03-19T05:40:26.652Z,5.33
2023-03-19T05:42:54.234Z,5.65
2023-03-19T05:45:22.539Z,5.63
2023-03-19T05:47:50.440Z,5.79
2023-03-19T05:50:18.965Z,5.58
2023-03-19T05:52:48.438Z,5.47
2023-03-19T05:55:15.605Z,5.33
2023-03-19T05:57:43.184Z,5.42
2023-03-19T06:00:12.641Z,5.50
2023-03-19T06:02:41.477Z,5.62
2023-03-19T06:05:11.133Z,5.98
2023-03-19T06:07:38.666Z,6.60
2023-03-19T06:10:07.758Z,7.26
2023-03-19T06:12:36.224Z,7.82
2023-03-19T06:15:06.789Z,8.27
2023-03-19T06:17:37.254Z,8.38
2023-03-19T06:20:05.288Z,8.53
2023-03-19T06:22:32.455Z,8.52
2023-03-19T06:25:00.345Z,8.42
2023-03-19T06:27:28.170Z,8.20
2023-03-19T06:29:56.128Z,8.24
2023-03-19T06:32:24.199Z,8.48
2023-03-19T06:34:51.961Z,9.02
2023-03-19T06:37:19.618Z,9.63
2023-03-19T06:39:47.066Z,10.29
2023-03-19T06:42:14.278Z,10.35
2023-03-19T06:44:41.677Z,10.45
2023-03-19T06:47:09.360Z,10.03
2023-03-19T06:49:37.750Z,10.45
2023-03-19T06:52:04.952Z,10.83
2023-03-19T06:54:32.866Z,10.89
2023-03-19T06:57:00.163Z,11.51
2023-03-19T06:59:27.326Z,11.72
2023-03-19T07:01:54.683Z,12.40
2023-03-19T07:04:21.966Z,12.61
2023-03-19T07:06:49.078Z,12.27
2023-03-19T07:09:16.482Z,12.42
2023-03-19T07:11:43.669Z,12.29
2023-03-19T07:14:11.570Z,12.49
2023-03-19T07:16:39.677Z,12.49
2023-03-19T07:19:07.239Z,12.19
2023-03-19T07:21:34.411Z,11.88
2023-03-19T07:24:01.886Z,11.95
2023-03-19T07:26:28.955Z,11.80
2023-03-19T07:28:56.074Z,12.41
2023-03-19T07:31:23.705Z,12.82
2023-03-19T07:33:51.322Z,13.04
2023-03-19T07:36:18.420Z,13.68
2023-03-19T07:38:45.800Z,13.78
2023-03-19T07:41:12.911Z,13.95
2023-03-19T07:43:40.045Z,14.02
2023-03-19T07:46:08.004Z,13.57
2023-03-19T07:48:35.811Z,13.18
2023-03-19T07:51:03.022Z,13.25
2023-03-19T07:53:30.436Z,13.64
2023-03-19T07:55:57.750Z,13.55
2023-03-19T07:58:24.950Z,13.55
2023-03-19T08:00:54.041Z,13.27
2023-03-19T08:03:21.545Z,13.51
2023-03-19T08:05:50.012Z,13.26
2023-03-19T08:08:17.514Z,12.94
2023-03-19T08:10:45.290Z,12.80
2023-03-19T08:13:14.135Z,12.51
2023-03-19T08:15:41.230Z,12.55
2023-03-19T08:18:09.087Z,12.25
2023-03-19T08:20:36.556Z,12.53
2023-03-19T08:23:04.492Z,12.58
2023-03-19T08:25:32.703Z,12.41
2023-03-19T08:28:01.265Z,12.28
2023-03-19T08:30:28.586Z,12.33
2023-03-19T08:32:56.367Z,12.46
2023-03-19T08:35:26.938Z,12.67
2023-03-19T08:37:55.358Z,12.64
2023-03-19T08:40:23.896Z,12.56
2023-03-19T08:42:51.069Z,12.42
2023-03-19T08:45:18.510Z,12.32
2023-03-19T08:47:45.964Z,12.54
2023-03-19T08:50:13.176Z,12.65
2023-03-19T08:52:40.401Z,12.54
2023-03-19T08:55:09.370Z,12.44
2023-03-19T08:57:37.156Z,12.52
2023-03-19T09:00:08.227Z,12.39
2023-03-19T09:02:36.054Z,12.57
2023-03-19T09:05:03.227Z,12.43
2023-03-19T09:07:30.598Z,12.49
2023-03-19T09:09:57.980Z,12.46
2023-03-19T09:12:25.437Z,12.81
2023-03-19T09:14:52.554Z,12.78
2023-03-19T09:17:20.233Z,12.90
2023-03-19T09:19:47.394Z,12.96
2023-03-19T09:22:14.577Z,12.96
2023-03-19T09:24:42.005Z,13.02
2023-03-19T09:27:09.115Z,12.78
2023-03-19T09:29:36.525Z,12.98
2023-03-19T09:32:04.390Z,12.89
2023-03-19T09:34:31.622Z,13.01
2023-03-19T09:36:58.729Z,12.86
2023-03-19T09:39:26.401Z,13.22
2023-03-19T09:42:18.982Z,13.25
2023-03-19T09:44:46.670Z,13.33
2023-03-19T09:47:26.123Z,13.52
2023-03-19T09:49:57.785Z,13.58
2023-03-19T09:52:47.153Z,13.89
2023-03-19T09:55:39.102Z,13.88
2023-03-19T09:58:21.873Z,13.80
2023-03-19T10:00:51.247Z,13.76
2023-03-19T10:03:43.830Z,13.76
2023-03-19T10:06:37.349Z,13.97
2023-03-19T10:09:21.435Z,13.97
2023-03-19T10:12:33.710Z,13.74
2023-03-19T10:15:25.185Z,13.66
2023-03-19T10:18:13.550Z,14.02
2023-03-19T10:20:55.037Z,13.97
2023-03-19T10:23:43.935Z,14.05
2023-03-19T10:26:23.176Z,14.17
2023-03-19T10:29:03.298Z,14.06
2023-03-19T10:32:04.837Z,14.14
2023-03-19T10:34:54.250Z,14.21
2023-03-19T10:37:29.892Z,14.42
2023-03-19T10:39:59.685Z,14.61
2023-03-19T10:42:38.901Z,14.42
2023-03-19T10:45:25.853Z,14.50
2023-03-19T10:47:56.130Z,14.36
2023-03-19T10:50:34.170Z,14.74
2023-03-19T10:53:37.639Z,14.81
2023-03-19T10:56:16.458Z,14.49
2023-03-19T10:59:01.232Z,14.67
2023-03-19T11:01:48.416Z,14.87
2023-03-19T11:04:22.059Z,15.05
2023-03-19T11:07:11.799Z,15.19
2023-03-19T11:09:41.788Z,15.16
2023-03-19T11:12:23.007Z,15.30
2023-03-19T11:14:52.631Z,15.20
2023-03-19T11:17:40.054Z,15.35
2023-03-19T11:20:27.689Z,15.38
2023-03-19T11:22:56.504Z,15.23
2023-03-19T11:25:28.498Z,15.17
2023-03-19T11:28:01.148Z,15.38
2023-03-19T11:30:39.017Z,15.39
2023-03-19T11:33:12.932Z,15.36
2023-03-19T11:35:49.020Z,15.49
2023-03-19T11:38:41.377Z,15.44
2023-03-19T11:41:11.890Z,15.32
2023-03-19T11:44:03.526Z,15.31
2023-03-19T11:47:14.810Z,15.40
2023-03-19T11:50:07.983Z,15.42
2023-03-19T11:52:47.338Z,15.43
2023-03-19T11:55:44.276Z,15.48
2023-03-19T11:58:32.870Z,15.44
2023-03-19T12:01:20.510Z,15.56
2023-03-19T12:04:09.454Z,15.62
2023-03-19T12:06:53.434Z,15.67
2023-03-19T12:09:33.526Z,15.73
2023-03-19T12:12:28.874Z,15.58
2023-03-19T12:15:24.355Z,15.63
2023-03-19T12:18:09.853Z,15.74
2023-03-19T12:20:49.198Z,15.78
2023-03-19T12:23:36.055Z,15.89
2023-03-19T12:26:10.019Z,15.84
2023-03-19T12:28:51.309Z,16.06
2023-03-19T12:31:37.500Z,16.12
2023-03-19T12:34:14.831Z,16.18
2023-03-19T12:37:14.793Z,16.05
2023-03-19T12:40:05.194Z,16.16
2023-03-19T12:42:38.449Z,16.05
2023-03-19T12:45:28.381Z,16.29
2023-03-19T12:48:10.362Z,16.26
2023-03-19T12:50:41.691Z,16.31
2023-03-19T12:53:28.547Z,16.33
2023-03-19T12:56:00.264Z,16.08
2023-03-19T12:58:55.881Z,16.06
2023-03-19T13:01:30.344Z,16.07
2023-03-19T13:04:09.252Z,16.20
2023-03-19T13:06:44.853Z,16.18
2023-03-19T13:09:47.900Z,16.06
2023-03-19T13:12:22.748Z,15.82
2023-03-19T13:15:06.286Z,15.66
2023-03-19T13:17:57.937Z,15.29
2023-03-19T13:20:50.120Z,15.07
2023-03-19T13:23:27.587Z,15.07
2023-03-19T13:25:57.383Z,14.94
2023-03-19T13:28:33.556Z,14.90
2023-03-19T13:31:07.040Z,14.66
2023-03-19T13:33:40.716Z,14.76
2023-03-19T13:36:14.616Z,14.71
2023-03-19T13:38:47.314Z,14.67
2023-03-19T13:41:42.549Z,14.76
2023-03-19T13:44:39.915Z,14.93
2023-03-19T13:47:25.698Z,14.94
2023-03-19T13:50:16.326Z,15.10
2023-03-19T13:52:43.803Z,15.57
2023-03-19T13:55:26.706Z,15.88
2023-03-19T13:58:12.526Z,16.13
2023-03-19T14:00:45.609Z,16.50
2023-03-19T14:03:33.278Z,16.80
2023-03-19T14:06:01.723Z,16.57
2023-03-19T14:08:34.313Z,16.48
2023-03-19T14:11:05.720Z,16.32
2023-03-19T14:13:43.292Z,16.39
2023-03-19T14:16:38.211Z,16.39
2023-03-19T14:19:12.240Z,16.36
2023-03-19T14:22:02.726Z,16.22
2023-03-19T14:24:56.249Z,16.23
2023-03-19T14:27:32.154Z,16.03
2023-03-19T14:30:09.640Z,16.03
2023-03-19T14:32:42.298Z,15.79
2023-03-19T14:35:17.114Z,15.84
2023-03-19T14:37:50.309Z,15.95
2023-03-19T14:40:25.991Z,15.97
2023-03-19T14:43:02.132Z,16.03
2023-03-19T14:45:58.919Z,16.12
2023-03-19T14:48:50.323Z,16.09
2023-03-19T14:51:35.822Z,16.29
2023-03-19T14:54:24.619Z,16.25
2023-03-19T14:56:52.100Z,16.29
2023-03-19T14:59:19.275Z,16.37
2023-03-19T15:01:51.222Z,16.38
2023-03-19T15:04:22.899Z,16.30
2023-03-19T15:06:56.336Z,16.35
2023-03-19T15:09:29.679Z,16.30
2023-03-19T15:12:17.092Z,16.30
2023-03-19T15:15:12.576Z,16.12
2023-03-19T15:17:39.777Z,15.90
2023-03-19T15:20:22.230Z,15.84
2023-03-19T15:22:59.904Z,15.75
2023-03-19T15:25:27.785Z,15.55
2023-03-19T15:28:15.728Z,15.41
2023-03-19T15:30:54.709Z,15.19
2023-03-19T15:33:39.445Z,15.09
2023-03-19T15:36:13.828Z,14.94
2023-03-19T15:38:52.105Z,14.91
2023-03-19T15:41:21.096Z,14.78
2023-03-19T15:43:49.179Z,14.70
2023-03-19T15:46:22.706Z,14.60
2023-03-19T15:48:58.173Z,14.48
2023-03-19T15:51:26.751Z,14.46
2023-03-19T15:53:54.706Z,14.53
2023-03-19T15:56:23.849Z,14.52
2023-03-19T15:58:53.452Z,14.44
2023-03-19T16:01:21.693Z,14.41
2023-03-19T16:03:59.317Z,14.33
2023-03-19T16:06:30.414Z,14.23
2023-03-19T16:09:13.837Z,14.15
2023-03-19T16:11:46.441Z,14.08
2023-03-19T16:14:27.095Z,13.99
2023-03-19T16:17:12.344Z,13.83
2023-03-19T16:19:52.634Z,13.76
2023-03-19T16:22:30.916Z,13.72
2023-03-19T16:24:59.709Z,13.60
2023-03-19T16:27:38.867Z,13.53
2023-03-19T16:30:19.332Z,13.52
2023-03-19T16:32:46.535Z,13.49
2023-03-19T16:35:16.774Z,13.37
2023-03-19T16:37:44.853Z,13.28
2023-03-19T16:40:11.795Z,13.18
2023-03-19T16:42:54.143Z,13.10
2023-03-19T16:45:32.015Z,13.03
2023-03-19T16:48:03.317Z,12.98
2023-03-19T16:50:31.988Z,12.90
2023-03-19T16:53:01.328Z,12.84
2023-03-19T16:55:35.877Z,12.76
2023-03-19T16:58:07.477Z,12.70
2023-03-19T17:00:35.252Z,12.64
2023-03-19T17:03:02.475Z,12.61
2023-03-19T17:05:30.038Z,12.60
2023-03-19T17:07:57.111Z,12.54
2023-03-19T17:10:27.388Z,12.44
2023-03-19T17:12:56.133Z,12.35
2023-03-19T17:15:31.450Z,12.27
2023-03-19T17:18:00.645Z,12.22
2023-03-19T17:20:34.231Z,12.17
2023-03-19T17:23:02.345Z,12.15
2023-03-19T17:25:29.633Z,12.09
2023-03-19T17:27:56.702Z,12.07
2023-03-19T17:30:24.067Z,12.01
2023-03-19T17:32:51.741Z,11.96
2023-03-19T17:35:21.886Z,11.95
2023-03-19T17:37:50.068Z,11.91
2023-03-19T17:40:23.388Z,11.90
2023-03-19T17:42:51.405Z,11.89
2023-03-19T17:45:21.236Z,11.84
2023-03-19T17:47:50.909Z,11.81
2023-03-19T17:50:21.698Z,11.79
2023-03-19T17:52:48.996Z,11.82
2023-03-19T17:55:18.570Z,11.80
2023-03-19T17:57:46.175Z,11.74
2023-03-19T18:00:13.905Z,11.74
2023-03-19T18:02:41.630Z,11.76
2023-03-19T18:05:17.799Z,11.71
2023-03-19T18:07:46.436Z,11.69
2023-03-19T18:10:29.682Z,11.78
2023-03-19T18:13:00.001Z,11.80
2023-03-19T18:15:29.561Z,11.83
2023-03-19T18:17:59.094Z,11.74
2023-03-19T18:20:31.691Z,11.69
2023-03-19T18:22:59.167Z,11.65
2023-03-19T18:25:28.085Z,11.60
2023-03-19T18:27:55.197Z,11.58
2023-03-19T18:30:23.959Z,11.54
2023-03-19T18:32:58.403Z,11.52
2023-03-19T18:35:39.616Z,11.49
2023-03-19T18:38:15.361Z,11.49
2023-03-19T18:40:42.929Z,11.45
2023-03-19T18:43:11.352Z,11.42
2023-03-19T18:45:40.686Z,11.45
2023-03-19T18:48:20.665Z,11.54
2023-03-19T18:50:48.456Z,11.53
2023-03-19T18:53:17.249Z,11.50
2023-03-19T18:55:45.298Z,11.50
2023-03-19T18:58:24.929Z,11.54
2023-03-19T19:00:53.541Z,11.50
2023-03-19T19:03:28.498Z,11.55
2023-03-19T19:05:56.195Z,11.71
2023-03-19T19:08:25.276Z,11.70
2023-03-19T19:11:03.692Z,11.69
2023-03-19T19:13:53.421Z,11.72
2023-03-19T19:16:31.022Z,11.79
2023-03-19T19:18:58.480Z,11.88
2023-03-19T19:21:25.711Z,11.84
2023-03-19T19:23:52.802Z,11.84
2023-03-19T19:26:24.020Z,11.93
2023-03-19T19:28:52.996Z,11.90
2023-03-19T19:31:28.732Z,11.84
2023-03-19T19:33:56.227Z,11.99
2023-03-19T19:36:24.806Z,11.96
2023-03-19T19:38:52.708Z,11.88
2023-03-19T19:41:25.644Z,11.85
2023-03-19T19:43:55.683Z,11.90
2023-03-19T19:46:24.476Z,11.88
2023-03-19T19:48:51.678Z,12.01
2023-03-19T19:51:21.909Z,11.90
2023-03-19T19:53:49.531Z,11.82
2023-03-19T19:56:22.228Z,11.86
2023-03-19T19:58:54.649Z,11.89
2023-03-19T20:01:25.008Z,11.74
2023-03-19T20:03:53.053Z,11.81
2023-03-19T20:06:20.596Z,11.79
2023-03-19T20:08:50.592Z,11.72
2023-03-19T20:11:24.160Z,11.69
2023-03-19T20:13:55.563Z,11.64
2023-03-19T20:16:26.195Z,11.61
2023-03-19T20:18:55.442Z,11.60
2023-03-19T20:21:23.317Z,11.57
2023-03-19T20:23:55.151Z,11.61
2023-03-19T20:26:24.674Z,11.58
2023-03-19T20:28:52.162Z,11.58
2023-03-19T20:31:29.552Z,11.61
2023-03-19T20:33:58.654Z,11.54
2023-03-19T20:36:26.829Z,11.47
2023-03-19T20:38:54.079Z,11.42
2023-03-19T20:41:29.550Z,11.17
2023-03-19T20:43:57.013Z,10.96
2023-03-19T20:46:24.720Z,10.94
2023-03-19T20:48:51.843Z,10.80
2023-03-19T20:51:21.710Z,10.70
2023-03-19T20:53:51.235Z,10.55
2023-03-19T20:56:21.985Z,10.44
2023-03-19T20:58:49.616Z,10.36
2023-03-19T21:01:17.898Z,10.25
2023-03-19T21:03:45.374Z,10.23
2023-03-19T21:06:22.934Z,10.16
2023-03-19T21:08:53.385Z,10.14
2023-03-19T21:11:23.028Z,10.13
2023-03-19T21:13:53.108Z,10.31
2023-03-19T21:16:22.026Z,10.31
2023-03-19T21:18:49.399Z,10.28
2023-03-19T21:21:18.597Z,10.27
2023-03-19T21:24:14.485Z,10.18
2023-03-19T21:26:42.769Z,10.32
2023-03-19T21:29:33.232Z,10.27
2023-03-19T21:32:00.692Z,10.25
2023-03-19T21:34:28.549Z,10.16
2023-03-19T21:36:55.854Z,10.04
2023-03-19T21:39:22.881Z,9.94
2023-03-19T21:41:50.271Z,9.84
2023-03-19T21:44:21.889Z,9.81
2023-03-19T21:46:49.521Z,9.79
2023-03-19T21:49:16.635Z,9.83
2023-03-19T21:51:44.234Z,9.85
2023-03-19T21:54:11.606Z,9.90
2023-03-19T21:56:41.618Z,9.96
2023-03-19T21:59:30.754Z,10.00
2023-03-19T22:01:58.153Z,10.10
2023-03-19T22:04:25.571Z,10.15
2023-03-19T22:06:53.011Z,10.33
2023-03-19T22:09:20.065Z,10.33
2023-03-19T22:11:47.383Z,10.36
2023-03-19T22:14:26.605Z,10.35
2023-03-19T22:16:55.966Z,10.48
2023-03-19T22:19:23.803Z,10.46
2023-03-19T22:21:50.957Z,10.55
2023-03-19T22:24:18.313Z,10.61
2023-03-19T22:26:49.577Z,10.51
2023-03-19T22:29:23.580Z,10.56
2023-03-19T22:31:54.870Z,10.53
2023-03-19T22:34:25.651Z,10.42
2023-03-19T22:36:53.662Z,10.35
2023-03-19T22:39:20.803Z,10.29
2023-03-19T22:41:48.830Z,10.39
2023-03-19T22:44:31.255Z,10.34
2023-03-19T22:47:00.751Z,10.38
2023-03-19T22:49:29.885Z,10.40
2023-03-19T22:51:57.975Z,10.38
2023-03-19T22:54:26.065Z,10.30
2023-03-19T22:56:53.676Z,10.17
2023-03-19T22:59:20.689Z,10.03
2023-03-19T23:01:48.441Z,9.96
2023-03-19T23:04:33.238Z,10.02
2023-03-19T23:07:00.834Z,9.99
2023-03-19T23:09:30.793Z,9.98
2023-03-19T23:11:59.360Z,10.00
2023-03-19T23:14:31.014Z,9.96
2023-03-19T23:17:03.403Z,10.02
2023-03-19T23:19:33.757Z,10.09
2023-03-19T23:22:03.180Z,10.03
2023-03-19T23:24:31.150Z,9.88
2023-03-19T23:26:59.801Z,9.83
2023-03-19T23:29:32.411Z,9.76
2023-03-19T23:31:59.704Z,9.81
2023-03-19T23:34:28.597Z,9.79
2023-03-19T23:36:56.778Z,9.93
2023-03-19T23:39:25.377Z,9.77
2023-03-19T23:41:57.699Z,9.70
2023-03-19T23:44:27.198Z,9.73
2023-03-19T23:46:58.710Z,9.70
2023-03-19T23:49:33.251Z,9.68
2023-03-19T23:52:01.970Z,9.78
2023-03-19T23:54:34.057Z,9.86
2023-03-19T23:57:05.121Z,9.81
2023-03-19T23:59:38.268Z,9.77
